Time;durP1;ratioP1;P1;durP2;ratioP2;P2;SDS_P1;SDS_P2;PMS_P1;PMS_P2;Temp;Humidity;BMP_temperature;BMP_pressure;BME280_temperature;BME280_humidity;BME280_pressure;Samples;Min_cycle;Max_cycle;Signal;HPM_P1;HPM_P2
2021/10/15 00:00:26;;;;;;;0.00;0.00;;;;;;;15.73;68.03;101338.00;2612516;31;20031;-54
2021/10/15 00:02:55;;;;;;;0.00;0.00;;;;;;;15.74;68.38;101344.13;2629441;31;20283;-54
2021/10/15 00:05:22;;;;;;;0.00;0.00;;;;;;;15.67;68.03;101332.09;2615297;31;20042;-54
2021/10/15 00:07:48;;;;;;;0.00;0.00;;;;;;;15.75;67.73;101351.97;2619736;31;20842;-52
2021/10/15 00:10:15;;;;;;;0.00;0.00;;;;;;;15.75;68.20;101351.97;2629374;31;20038;-52
2021/10/15 00:12:42;;;;;;;0.00;0.00;;;;;;;15.76;68.26;101353.69;2611569;31;20054;-52
2021/10/15 00:15:09;;;;;;;0.00;0.00;;;;;;;15.77;68.13;101363.31;2615342;31;20030;-54
2021/10/15 00:17:36;;;;;;;0.00;0.00;;;;;;;15.78;68.07;101362.41;2632738;36;20133;-53
2021/10/15 00:20:04;;;;;;;0.00;0.00;;;;;;;15.79;67.83;101369.38;2613598;36;20629;-55
2021/10/15 00:22:32;;;;;;;0.00;0.00;;;;;;;15.78;67.52;101365.03;2628210;36;20034;-55
2021/10/15 00:24:59;;;;;;;0.00;0.00;;;;;;;15.77;67.28;101360.69;2631334;31;20039;-53
2021/10/15 00:27:26;;;;;;;0.03;0.03;;;;;;;15.74;67.67;101358.13;2609670;36;20058;-56
2021/10/15 00:29:52;;;;;;;0.00;0.00;;;;;;;15.74;67.43;101366.03;2616212;36;20042;-52
2021/10/15 00:32:19;;;;;;;0.00;0.00;;;;;;;15.63;67.50;101347.13;2630014;31;20034;-52
2021/10/15 00:34:46;;;;;;;0.00;0.00;;;;;;;15.70;67.26;101366.19;2619531;31;20835;-50
2021/10/15 00:37:13;;;;;;;0.00;0.00;;;;;;;15.70;67.39;101368.81;2610558;31;20030;-54
2021/10/15 00:39:40;;;;;;;0.00;0.00;;;;;;;15.66;66.89;101357.56;2618933;31;20045;-54
2021/10/15 00:42:07;;;;;;;0.00;0.00;;;;;;;15.68;67.03;101360.13;2620546;31;20533;-53
2021/10/15 00:44:37;;;;;;;0.00;0.00;;;;;;;15.71;66.84;101370.53;2614611;31;20034;-54
2021/10/15 00:47:04;;;;;;;0.00;0.00;;;;;;;15.67;66.72;101367.16;2613512;31;20141;-54
2021/10/15 00:49:32;;;;;;;0.00;0.00;;;;;;;15.67;66.56;101372.44;2619203;31;20045;-51
2021/10/15 00:52:00;;;;;;;0.00;0.00;;;;;;;15.69;66.62;101377.63;2612096;31;20038;-55
2021/10/15 00:54:27;;;;;;;0.00;0.00;;;;;;;15.67;66.90;101379.47;2631127;31;20573;-52
2021/10/15 00:56:54;;;;;;;0.00;0.00;;;;;;;15.69;66.86;101389.03;2610396;31;20037;-56
2021/10/15 00:59:21;;;;;;;0.00;0.00;;;;;;;15.68;66.31;101392.59;2649896;31;20007;-53
2021/10/15 01:01:48;;;;;;;0.10;0.10;;;;;;;15.69;65.78;101390.81;2610977;31;20027;-54
2021/10/15 01:04:17;;;;;;;0.00;0.00;;;;;;;15.70;66.15;101398.66;2611142;31;20030;-53
2021/10/15 01:06:44;;;;;;;0.00;0.00;;;;;;;15.67;65.74;101396.13;2617896;31;20053;-54
2021/10/15 01:09:11;;;;;;;0.10;0.10;;;;;;;15.66;65.96;101394.41;2631004;31;20692;-51
2021/10/15 01:11:39;;;;;;;0.00;0.00;;;;;;;15.66;66.05;101398.78;2629034;36;20093;-51
2021/10/15 01:14:07;;;;;;;0.00;0.00;;;;;;;15.54;65.78;101381.59;2613249;36;20066;-51
2021/10/15 01:16:34;;;;;;;0.00;0.00;;;;;;;15.64;65.75;101396.22;2611131;31;20035;-52
2021/10/15 01:19:03;;;;;;;0.00;0.00;;;;;;;15.65;65.73;101400.56;2632252;31;20852;-51
2021/10/15 01:21:30;;;;;;;0.00;0.00;;;;;;;15.60;64.95;101399.81;2613080;31;20038;-54
2021/10/15 01:23:57;;;;;;;0.00;0.00;;;;;;;15.58;65.34;101396.41;2612752;31;20035;-54
2021/10/15 01:26:24;;;;;;;;;;;;;;;15.66;64.37;101404.94;2647070;31;20446;-54
2021/10/15 01:28:53;;;;;;;0.00;0.00;;;;;;;15.60;65.03;101407.72;2627277;31;19958;-53
2021/10/15 01:31:20;;;;;;;0.00;0.00;;;;;;;15.56;64.62;101403.47;2612417;31;20039;-54
2021/10/15 01:33:47;;;;;;;0.00;0.00;;;;;;;15.56;64.88;101406.09;2611539;31;20062;-50
2021/10/15 01:36:14;;;;;;;0.00;0.00;;;;;;;15.55;64.96;101407.88;2612725;31;20061;-51
2021/10/15 01:38:41;;;;;;;0.00;0.00;;;;;;;15.54;65.06;101410.56;2618881;31;20031;-52
2021/10/15 01:41:09;;;;;;;0.00;0.00;;;;;;;15.53;65.16;101411.47;2616384;31;20905;-53
2021/10/15 01:43:36;;;;;;;0.00;0.00;;;;;;;15.52;65.04;101409.75;2611365;31;20034;-52
2021/10/15 01:46:02;;;;;;;0.00;0.00;;;;;;;15.50;65.17;101415.06;2611382;31;20030;-51
2021/10/15 01:48:29;;;;;;;0.00;0.00;;;;;;;15.50;65.15;101412.41;2629996;31;20069;-54
2021/10/15 01:50:56;;;;;;;0.00;0.00;;;;;;;15.49;64.84;101417.75;2610916;31;20046;-53
2021/10/15 01:53:23;;;;;;;0.00;0.00;;;;;;;15.47;64.65;101415.16;2611512;31;20146;-56
2021/10/15 01:55:50;;;;;;;0.00;0.00;;;;;;;15.48;64.39;101418.66;2629028;31;20031;-54
2021/10/15 01:58:18;;;;;;;0.00;0.00;;;;;;;15.48;64.70;101421.28;2628880;31;20549;-54
2021/10/15 02:00:47;;;;;;;0.00;0.00;;;;;;;15.47;64.61;101427.47;2638160;31;20660;-52
2021/10/15 02:03:15;;;;;;;0.00;0.00;;;;;;;15.44;64.66;101422.28;2614088;36;20133;-51
2021/10/15 02:05:42;;;;;;;0.00;0.00;;;;;;;15.42;64.44;101426.75;2629088;31;20038;-51
2021/10/15 02:08:09;;;;;;;0.00;0.00;;;;;;;15.42;64.70;101426.75;2631952;36;20130;-55
2021/10/15 02:10:38;;;;;;;0.00;0.00;;;;;;;15.40;64.59;101418.03;2615268;31;20096;-54
2021/10/15 02:13:04;;;;;;;0.00;0.00;;;;;;;15.39;65.16;101426.84;2616687;31;20034;-54
2021/10/15 02:15:31;;;;;;;0.03;0.03;;;;;;;15.34;64.91;101420.84;2613552;31;20065;-53
2021/10/15 02:17:58;;;;;;;0.00;0.00;;;;;;;15.36;64.76;101421.66;2611518;31;20034;-51
2021/10/15 02:20:26;;;;;;;0.00;0.00;;;;;;;15.34;64.78;101423.47;2629610;31;20031;-52
2021/10/15 02:22:53;;;;;;;0.00;0.00;;;;;;;15.32;64.68;101432.28;2619269;31;20158;-53
2021/10/15 02:25:20;;;;;;;0.00;0.00;;;;;;;15.32;64.85;101434.06;2630068;31;20558;-53
2021/10/15 02:27:48;;;;;;;0.00;0.00;;;;;;;15.28;64.61;101430.66;2609092;36;20030;-55
2021/10/15 02:30:16;;;;;;;0.00;0.00;;;;;;;15.34;64.44;101440.13;2633076;31;20045;-52
2021/10/15 02:32:44;;;;;;;0.00;0.00;;;;;;;15.32;64.49;101434.94;2614461;31;20034;-52
2021/10/15 02:35:11;;;;;;;;;;;;;;;15.39;63.28;101426.84;2615071;31;20564;-50
2021/10/15 02:37:39;;;;;;;0.00;0.00;;;;;;;15.26;64.61;101418.47;2613318;31;20640;-52
2021/10/15 02:40:07;;;;;;;0.00;0.00;;;;;;;15.31;64.17;101425.31;2622136;31;20528;-52
2021/10/15 02:42:34;;;;;;;0.00;0.00;;;;;;;15.28;64.06;101430.66;2623716;31;20034;-56
2021/10/15 02:45:03;;;;;;;0.00;0.00;;;;;;;15.27;64.04;101428.09;2614997;31;20130;-52
2021/10/15 02:47:30;;;;;;;0.00;0.00;;;;;;;15.24;64.43;101434.28;2616898;31;20084;-52
2021/10/15 02:49:57;;;;;;;0.00;0.00;;;;;;;15.23;64.54;101437.81;2628982;31;20038;-52
2021/10/15 02:52:24;;;;;;;0.00;0.00;;;;;;;15.22;64.42;101435.25;2650503;31;20045;-54
2021/10/15 02:54:51;;;;;;;0.00;0.00;;;;;;;15.20;64.65;101434.41;2617338;31;20034;-52
2021/10/15 02:57:17;;;;;;;0.00;0.00;;;;;;;15.18;64.45;101439.75;2616939;31;21067;-54
2021/10/15 02:59:44;;;;;;;0.00;0.00;;;;;;;15.18;64.75;101429.22;2612963;31;20034;-54
2021/10/15 03:02:14;;;;;;;0.00;0.00;;;;;;;15.12;64.29;101424.16;2651870;31;20798;-54
2021/10/15 03:04:41;;;;;;;0.00;0.00;;;;;;;15.16;64.33;101441.56;2613323;31;20030;-53
2021/10/15 03:07:09;;;;;;;0.00;0.00;;;;;;;15.15;64.34;101444.22;2631241;31;20094;-51
2021/10/15 03:09:36;;;;;;;;;;;;;;;15.21;63.06;101446.69;2634213;31;21594;-50
2021/10/15 03:12:05;;;;;;;0.00;0.00;;;;;;;15.15;64.41;101444.22;2615804;31;19950;-53
2021/10/15 03:14:33;;;;;;;0.00;0.00;;;;;;;15.12;64.36;101445.19;2629876;36;20038;-55
2021/10/15 03:17:01;;;;;;;0.00;0.00;;;;;;;15.05;63.83;101443.63;2614318;31;20038;-55
2021/10/15 03:19:28;;;;;;;0.00;0.00;;;;;;;14.97;64.42;101429.84;2615849;31;20034;-52
2021/10/15 03:21:55;;;;;;;0.00;0.00;;;;;;;15.05;64.23;101446.25;2619161;31;20042;-52
2021/10/15 03:24:22;;;;;;;0.00;0.00;;;;;;;15.02;64.07;101447.22;2614111;31;20107;-52
2021/10/15 03:26:49;;;;;;;0.00;0.00;;;;;;;15.00;63.96;101450.78;2615416;31;20034;-50
2021/10/15 03:29:16;;;;;;;0.00;0.00;;;;;;;14.97;63.53;101445.63;2612088;31;20474;-51
2021/10/15 03:31:42;;;;;;;0.00;0.00;;;;;;;14.96;63.70;101452.66;2615492;31;20066;-50
2021/10/15 03:34:09;;;;;;;0.00;0.00;;;;;;;14.94;63.37;101450.97;2612757;31;20041;-53
2021/10/15 03:36:36;;;;;;;0.00;0.00;;;;;;;14.92;63.77;101461.56;2634359;31;20038;-55
2021/10/15 03:39:03;;;;;;;0.00;0.00;;;;;;;14.89;63.78;101455.50;2621079;31;20121;-53
2021/10/15 03:41:30;;;;;;;0.00;0.00;;;;;;;14.85;62.97;101451.22;2629008;31;20041;-54
2021/10/15 03:43:57;;;;;;;0.00;0.00;;;;;;;14.85;63.32;101453.88;2621610;31;20096;-53
2021/10/15 03:46:24;;;;;;;0.00;0.00;;;;;;;14.85;62.32;101462.63;2633514;31;20034;-52
2021/10/15 03:48:51;;;;;;;0.00;0.00;;;;;;;14.84;61.73;101457.41;2634430;31;20038;-52
2021/10/15 03:51:18;;;;;;;0.00;0.00;;;;;;;14.83;62.57;101460.94;2613238;31;20039;-55
2021/10/15 03:53:44;;;;;;;0.00;0.00;;;;;;;14.81;62.73;101465.41;2634484;31;20909;-52
2021/10/15 03:56:12;;;;;;;0.00;0.00;;;;;;;14.74;62.67;101451.53;2617683;31;20038;-50
2021/10/15 03:58:39;;;;;;;0.00;0.00;;;;;;;14.77;62.63;101461.97;2614314;31;20038;-55
2021/10/15 04:01:06;;;;;;;0.00;0.00;;;;;;;14.74;62.64;101459.44;2615715;31;20034;-54
2021/10/15 04:03:33;;;;;;;0.00;0.00;;;;;;;14.75;62.56;101467.28;2614693;31;20152;-54
2021/10/15 04:06:00;;;;;;;0.00;0.00;;;;;;;14.74;61.83;101469.94;2613057;31;20549;-50
2021/10/15 04:08:27;;;;;;;0.00;0.00;;;;;;;14.72;61.77;101467.38;2648814;31;20026;-52
2021/10/15 04:10:54;;;;;;;0.00;0.00;;;;;;;14.64;61.97;101458.81;2647662;31;20030;-55
2021/10/15 04:13:20;;;;;;;0.00;0.00;;;;;;;14.70;61.88;101463.03;2629806;36;20042;-54
2021/10/15 04:15:47;;;;;;;0.00;0.00;;;;;;;14.69;62.08;101464.81;2630785;31;20546;-51
2021/10/15 04:18:14;;;;;;;0.00;0.00;;;;;;;14.66;62.50;101454.41;2618739;36;20413;-54
2021/10/15 04:20:42;;;;;;;0.00;0.00;;;;;;;14.66;61.46;101459.66;2630530;31;20031;-53
2021/10/15 04:23:08;;;;;;;0.00;0.00;;;;;;;14.66;62.11;101462.28;2610430;31;20556;-54
2021/10/15 04:25:35;;;;;;;0.00;0.00;;;;;;;14.57;61.71;101446.75;2614107;31;20042;-53
2021/10/15 04:28:03;;;;;;;0.00;0.00;;;;;;;14.58;61.89;101456.34;2616598;31;20644;-53
2021/10/15 04:30:30;;;;;;;0.00;0.00;;;;;;;14.64;62.36;101473.72;2631330;31;20034;-54
2021/10/15 04:32:56;;;;;;;0.00;0.00;;;;;;;14.63;61.96;101470.25;2629985;31;20039;-53
2021/10/15 04:35:23;;;;;;;0.00;0.00;;;;;;;14.62;62.01;101470.28;2614907;31;20903;-51
2021/10/15 04:37:50;;;;;;;0.00;0.00;;;;;;;14.61;61.84;101474.69;2629476;36;20279;-53
2021/10/15 04:40:17;;;;;;;0.00;0.00;;;;;;;14.60;62.10;101467.72;2630198;31;20069;-51
2021/10/15 04:42:48;;;;;;;0.00;0.00;;;;;;;14.61;61.85;101473.81;2650963;31;20802;-52
2021/10/15 04:45:15;;;;;;;0.00;0.00;;;;;;;14.51;61.74;101455.66;2613038;31;20878;-53
2021/10/15 04:47:42;;;;;;;0.00;0.00;;;;;;;14.56;62.37;101476.56;2615101;31;20037;-51
2021/10/15 04:50:09;;;;;;;0.00;0.00;;;;;;;14.57;62.11;101473.03;2612912;31;20275;-54
2021/10/15 04:52:36;;;;;;;0.00;0.00;;;;;;;14.55;61.40;101480.13;2634752;31;20038;-54
2021/10/15 04:55:05;;;;;;;0.00;0.00;;;;;;;14.56;62.09;101481.84;2613599;31;20022;-54
2021/10/15 04:57:32;;;;;;;0.00;0.00;;;;;;;14.53;62.08;101489.78;2666291;31;20399;-54
2021/10/15 05:00:02;;;;;;;0.00;0.00;;;;;;;14.51;61.59;101486.34;2631486;31;20429;-54
2021/10/15 05:02:29;;;;;;;;;;;;;;;14.56;61.15;101481.84;2612963;31;20034;-52
2021/10/15 05:04:56;;;;;;;0.00;0.00;;;;;;;14.50;62.00;101488.13;2610925;36;20001;-54
2021/10/15 05:07:25;;;;;;;0.00;0.00;;;;;;;14.46;61.55;101496.94;2632456;31;20030;-55
2021/10/15 05:09:52;;;;;;;0.00;0.00;;;;;;;14.43;61.94;101504.03;2615424;31;20033;-53
2021/10/15 05:12:19;;;;;;;0.00;0.00;;;;;;;14.39;61.62;101497.13;2617921;31;20159;-53
2021/10/15 05:14:46;;;;;;;0.00;0.00;;;;;;;14.35;61.43;101500.75;2613520;31;20418;-54
2021/10/15 05:17:13;;;;;;;0.00;0.00;;;;;;;14.33;61.85;101507.81;2610438;31;20134;-52
2021/10/15 05:19:40;;;;;;;0.00;0.00;;;;;;;14.28;61.73;101508.78;2630727;31;20057;-53
2021/10/15 05:22:08;;;;;;;0.00;0.00;;;;;;;14.26;61.84;101505.34;2630400;31;20061;-52
2021/10/15 05:24:35;;;;;;;0.00;0.00;;;;;;;14.23;61.88;101505.41;2613643;31;20046;-50
2021/10/15 05:27:02;;;;;;;0.00;0.00;;;;;;;14.19;62.04;101509.03;2634664;36;20031;-53
2021/10/15 05:29:29;;;;;;;0.00;0.00;;;;;;;14.15;61.45;101504.75;2623450;31;20034;-50
2021/10/15 05:31:55;;;;;;;0.00;0.00;;;;;;;14.04;61.73;101498.91;2613863;31;20275;-52
2021/10/15 05:34:22;;;;;;;0.00;0.00;;;;;;;14.04;61.71;101504.16;2609690;31;20035;-54
2021/10/15 05:36:49;;;;;;;0.00;0.00;;;;;;;14.00;61.50;101505.13;2611634;31;20037;-53
2021/10/15 05:39:16;;;;;;;0.00;0.00;;;;;;;13.95;61.62;101501.75;2612195;31;20034;-52
2021/10/15 05:41:43;;;;;;;0.10;0.10;;;;;;;13.90;61.38;101509.72;2620406;31;20020;-57
2021/10/15 05:44:10;;;;;;;0.00;0.00;;;;;;;13.85;61.91;101514.22;2610565;36;20062;-53
2021/10/15 05:46:37;;;;;;;0.00;0.00;;;;;;;13.80;61.86;101515.22;2620484;31;20553;-55
2021/10/15 05:49:08;;;;;;;0.00;0.00;;;;;;;13.74;61.87;101511.84;2612813;31;20033;-53
2021/10/15 05:51:38;;;;;;;0.00;0.00;;;;;;;13.62;61.50;101498.13;2615230;31;20058;-54
2021/10/15 05:54:06;;;;;;;0.00;0.00;;;;;;;13.62;61.62;101517.34;2613211;31;20158;-54
2021/10/15 05:59:05;;;;;;;0.00;0.00;;;;;;;13.51;61.98;101524.59;2613642;31;20038;-52
2021/10/15 06:01:34;;;;;;;0.00;0.00;;;;;;;13.45;61.35;101515.09;2610871;31;20038;-53
2021/10/15 06:14:46;;;;;;;0.00;0.00;;;;;;;13.15;60.68;101542.81;2629143;36;20053;-53
2021/10/15 06:17:16;;;;;;;0.00;0.00;;;;;;;13.10;61.49;101549.91;2610440;36;20039;-53
2021/10/15 06:19:53;;;;;;;0.00;0.00;;;;;;;13.04;60.52;101547.41;2612179;31;20040;-53
2021/10/15 06:22:25;;;;;;;0.00;0.00;;;;;;;13.00;60.24;101548.34;2610688;31;20050;-53
2021/10/15 06:24:52;;;;;;;0.00;0.00;;;;;;;12.94;60.88;101553.72;2634561;31;20628;-52
2021/10/15 06:27:21;;;;;;;0.00;0.00;;;;;;;12.88;61.17;101557.31;2662384;36;20035;-54
2021/10/15 06:29:49;;;;;;;0.00;0.00;;;;;;;12.83;61.58;101560.91;2607086;31;20022;-54
2021/10/15 06:32:21;;;;;;;0.00;0.00;;;;;;;12.75;61.54;101557.56;2612340;31;20244;-54
2021/10/15 06:34:49;;;;;;;0.00;0.00;;;;;;;12.60;61.06;101548.22;2614572;31;20042;-54
2021/10/15 06:37:19;;;;;;;0.00;0.00;;;;;;;12.65;61.34;101570.81;2610793;31;20042;-53
2021/10/15 06:39:53;;;;;;;0.00;0.00;;;;;;;12.59;61.96;101570.06;2608499;31;20042;-52
2021/10/15 06:42:20;;;;;;;0.00;0.00;;;;;;;12.52;61.57;101561.47;2627493;31;20046;-53
2021/10/15 06:44:47;;;;;;;0.00;0.00;;;;;;;12.48;62.05;101569.41;2623831;36;20034;-53
2021/10/15 06:47:14;;;;;;;0.00;0.00;;;;;;;12.41;61.34;101573.84;2630847;31;20054;-52
2021/10/15 06:49:41;;;;;;;0.00;0.00;;;;;;;12.37;61.79;101572.19;2612524;31;20066;-52
2021/10/15 06:52:08;;;;;;;0.00;0.00;;;;;;;12.31;61.63;101567.88;2610060;31;20875;-53
2021/10/15 06:54:35;;;;;;;0.00;0.00;;;;;;;12.27;61.38;101568.00;2607833;31;20460;-54
2021/10/15 06:57:02;;;;;;;0.00;0.00;;;;;;;12.20;61.75;101575.91;2613546;31;20026;-51
2021/10/15 06:59:30;;;;;;;;;;;;;;;12.19;60.90;101574.19;2611707;36;20030;-52
2021/10/15 07:01:57;;;;;;;0.00;0.00;;;;;;;12.11;61.47;101576.06;2632699;31;19954;-51
2021/10/15 07:04:24;;;;;;;0.00;0.00;;;;;;;12.05;61.41;101581.38;2611024;31;20154;-53
2021/10/15 07:06:51;;;;;;;0.00;0.00;;;;;;;11.99;61.51;101584.09;2611231;36;20034;-52
2021/10/15 07:09:18;;;;;;;0.00;0.00;;;;;;;11.92;61.68;101578.09;2610371;31;20288;-55
2021/10/15 07:11:47;;;;;;;0.00;0.00;;;;;;;11.88;61.84;101578.16;2629938;36;20041;-55
2021/10/15 07:14:16;;;;;;;0.00;0.00;;;;;;;11.73;61.63;101557.41;2613840;31;20684;-53
2021/10/15 07:16:43;;;;;;;0.00;0.00;;;;;;;11.79;61.63;101586.09;2609782;31;20512;-55
2021/10/15 07:19:10;;;;;;;0.00;0.00;;;;;;;11.74;61.81;101596.63;2627967;31;20033;-55
2021/10/15 07:21:37;;;;;;;0.00;0.00;;;;;;;11.70;62.32;101592.31;2646290;31;20030;-54
2021/10/15 07:24:04;;;;;;;0.00;0.00;;;;;;;11.66;62.45;101590.66;2610645;31;20034;-53
2021/10/15 07:26:31;;;;;;;0.00;0.00;;;;;;;11.63;61.75;101603.75;2634615;31;20272;-56
2021/10/15 07:28:58;;;;;;;0.10;0.10;;;;;;;11.59;61.94;101608.16;2613099;31;20449;-55
2021/10/15 07:31:25;;;;;;;0.00;0.00;;;;;;;11.56;62.12;101597.75;2610011;31;20857;-55
2021/10/15 07:33:52;;;;;;;0.00;0.00;;;;;;;11.53;62.09;101597.75;2610432;31;20054;-54
2021/10/15 07:36:19;;;;;;;0.00;0.00;;;;;;;11.50;61.41;101602.16;2613684;31;20054;-55
2021/10/15 07:38:46;;;;;;;0.00;0.00;;;;;;;11.46;62.34;101601.34;2614012;31;20069;-55
2021/10/15 07:41:13;;;;;;;0.00;0.00;;;;;;;11.45;62.37;101604.81;2628097;36;20034;-54
2021/10/15 07:43:40;;;;;;;0.00;0.00;;;;;;;11.43;61.97;101599.63;2611170;31;20062;-54
2021/10/15 07:46:07;;;;;;;0.00;0.00;;;;;;;11.41;62.15;101605.78;2612899;31;20758;-55
2021/10/15 07:48:34;;;;;;;0.00;0.00;;;;;;;11.39;62.62;101604.91;2633852;31;20058;-55
2021/10/15 07:51:01;;;;;;;0.00;0.00;;;;;;;11.41;62.46;101608.38;2611858;31;20026;-55
2021/10/15 07:53:28;;;;;;;0.00;0.00;;;;;;;11.39;62.43;101618.84;2611470;31;20675;-55
2021/10/15 07:55:54;;;;;;;0.00;0.00;;;;;;;11.39;62.51;101616.22;2613688;31;20321;-56
2021/10/15 07:58:21;;;;;;;0.00;0.00;;;;;;;11.39;63.00;101620.59;2611725;31;20030;-52
2021/10/15 08:00:48;;;;;;;0.00;0.00;;;;;;;11.39;63.06;101621.47;2628290;36;20042;-56
2021/10/15 08:03:15;;;;;;;0.00;0.00;;;;;;;11.39;62.88;101618.84;2610800;31;20034;-55
2021/10/15 08:05:43;;;;;;;0.00;0.00;;;;;;;11.47;63.15;101623.13;2625089;31;20042;-54
2021/10/15 08:08:10;;;;;;;0.00;0.00;;;;;;;11.53;63.18;101629.16;2645091;36;20098;-56
2021/10/15 08:10:37;;;;;;;0.00;0.00;;;;;;;11.63;63.53;101633.41;2627571;31;20031;-55
2021/10/15 08:13:04;;;;;;;0.00;0.00;;;;;;;11.55;63.43;101595.97;2611376;36;20046;-54
2021/10/15 08:15:31;;;;;;;0.00;0.00;;;;;;;11.89;63.12;101640.09;2610963;31;20633;-55
2021/10/15 08:17:59;;;;;;;0.00;0.00;;;;;;;12.05;63.03;101625.88;2612305;31;20613;-55
2021/10/15 08:20:26;;;;;;;0.00;0.00;;;;;;;12.25;63.12;101629.97;2611357;31;20058;-56
2021/10/15 08:22:54;;;;;;;0.00;0.00;;;;;;;12.46;63.01;101637.50;2611371;31;20041;-53
2021/10/15 08:25:26;;;;;;;0.00;0.00;;;;;;;12.67;62.40;101638.91;2608898;31;20034;-54
2021/10/15 08:27:54;;;;;;;0.00;0.00;;;;;;;12.88;62.13;101633.34;2611031;36;20110;-52
2021/10/15 08:30:21;;;;;;;0.00;0.00;;;;;;;13.11;61.98;101646.03;2614237;31;20186;-56
2021/10/15 08:32:48;;;;;;;0.00;0.00;;;;;;;13.35;61.40;101650.00;2629834;31;20553;-53
2021/10/15 08:35:15;;;;;;;0.00;0.00;;;;;;;13.60;60.90;101649.53;2611367;31;20043;-55
2021/10/15 08:37:42;;;;;;;0.00;0.00;;;;;;;13.85;60.58;101645.50;2609805;31;20035;-54
2021/10/15 08:40:10;;;;;;;0.00;0.00;;;;;;;14.10;60.27;101645.81;2611001;31;20037;-56
2021/10/15 08:42:37;;;;;;;0.00;0.00;;;;;;;14.36;59.04;101652.25;2648028;31;20118;-54
2021/10/15 08:45:06;;;;;;;0.00;0.00;;;;;;;14.63;59.18;101656.88;2612930;31;20034;-52
2021/10/15 08:47:33;;;;;;;0.00;0.00;;;;;;;14.88;58.30;101651.03;2627832;31;20057;-55
2021/10/15 08:50:21;;;;;;;0.00;0.00;;;;;;;15.20;57.81;101652.81;2646144;31;20041;-56
2021/10/15 08:52:48;;;;;;;0.00;0.00;;;;;;;15.46;57.54;101660.88;2611858;31;20034;-55
2021/10/15 08:55:15;;;;;;;0.00;0.00;;;;;;;15.71;56.34;101655.81;2635492;31;20583;-55
2021/10/15 08:57:50;;;;;;;0.00;0.00;;;;;;;16.08;57.37;101657.34;2630739;31;20034;-54
2021/10/15 09:00:29;;;;;;;0.00;0.00;;;;;;;16.35;55.26;101668.81;2633211;31;20107;-54
2021/10/15 09:03:31;;;;;;;0.00;0.00;;;;;;;16.77;57.73;101658.69;2608933;31;20035;-55
2021/10/15 09:06:01;;;;;;;0.00;0.00;;;;;;;16.99;54.53;101660.63;2573163;31;2004112;-54
2021/10/15 09:08:50;;;;;;;0.00;0.00;;;;;;;17.36;56.73;101663.69;2610552;31;20584;-57
2021/10/15 09:11:26;;;;;;;0.00;0.00;;;;;;;17.63;54.98;101663.59;2631082;31;20039;-56
2021/10/15 09:14:10;;;;;;;0.00;0.00;;;;;;;17.92;55.57;101656.41;2629732;31;20035;-53
2021/10/15 09:17:06;;;;;;;0.00;0.00;;;;;;;18.29;55.57;101662.00;2630883;36;20607;-52
2021/10/15 09:19:36;;;;;;;0.00;0.00;;;;;;;18.52;51.70;101666.38;2575689;36;2004345;-55
2021/10/15 09:22:07;;;;;;;0.05;0.05;;;;;;;18.79;50.78;101667.03;2611502;31;20034;-55
2021/10/15 09:24:57;;;;;;;0.10;0.10;;;;;;;19.19;53.67;101662.72;2609819;31;20030;-52
2021/10/15 09:27:27;;;;;;;0.08;0.08;;;;;;;19.33;50.25;101657.69;2627447;36;20035;-55
2021/10/15 09:30:08;;;;;;;0.00;0.00;;;;;;;19.65;50.65;101663.34;2609826;31;20601;-53
2021/10/15 09:32:38;;;;;;;0.00;0.00;;;;;;;19.91;49.32;101672.75;2613167;31;20030;-55
2021/10/15 09:35:07;;;;;;;0.00;0.00;;;;;;;20.12;48.55;101666.50;2628135;31;20030;-55
2021/10/15 09:37:38;;;;;;;0.10;0.10;;;;;;;20.39;48.65;101653.69;2646740;31;21032;-54
2021/10/15 09:40:09;;;;;;;0.00;0.00;;;;;;;20.61;48.32;101663.28;2612458;31;20062;-53
2021/10/15 09:42:41;;;;;;;0.10;0.10;;;;;;;20.95;48.21;101663.31;2610080;31;20034;-56
2021/10/15 09:45:15;;;;;;;0.10;0.10;;;;;;;21.17;47.26;101660.41;2608983;36;20035;-53
2021/10/15 09:47:49;;;;;;;0.00;0.00;;;;;;;21.39;46.04;101662.84;2609855;31;20063;-56
2021/10/15 09:50:19;;;;;;;0.00;0.00;;;;;;;21.62;45.86;101663.41;2608042;36;20034;-54
2021/10/15 09:53:04;;;;;;;0.05;0.05;;;;;;;21.94;47.43;101659.00;2608879;31;20039;-54
2021/10/15 09:55:40;;;;;;;0.05;0.05;;;;;;;22.13;45.93;101667.72;2609135;31;20118;-53
2021/10/15 09:58:22;;;;;;;0.05;0.05;;;;;;;22.32;46.71;101637.41;2608413;31;20031;-55
2021/10/15 10:00:52;;;;;;;0.10;0.10;;;;;;;22.52;43.44;101656.63;2609561;31;20056;-54
2021/10/15 10:03:21;;;;;;;0.00;0.00;;;;;;;22.65;42.72;101651.44;2609522;31;20042;-57
2021/10/15 10:05:49;;;;;;;0.10;0.10;;;;;;;22.78;44.36;101657.75;2609409;31;20061;-56
2021/10/15 10:08:17;;;;;;;0.00;0.00;;;;;;;23.03;44.03;101662.53;2609249;31;20042;-56
2021/10/15 10:10:46;;;;;;;0.10;0.10;;;;;;;23.31;43.60;101660.84;2610134;31;20031;-57
2021/10/15 10:13:15;;;;;;;0.00;0.00;;;;;;;23.53;41.15;101655.94;2610310;31;20445;-56
2021/10/15 10:15:45;;;;;;;0.00;0.00;;;;;;;23.77;40.30;101666.94;2608018;31;20126;-57
2021/10/15 10:18:30;;;;;;;0.05;0.05;;;;;;;24.10;43.95;101662.19;2607819;36;20035;-57
2021/10/15 10:21:17;;;;;;;0.00;0.00;;;;;;;24.40;43.01;101660.25;2608279;31;20053;-55
2021/10/15 10:24:02;;;;;;;0.00;0.00;;;;;;;24.59;42.14;101663.41;2609177;31;20030;-55
2021/10/15 10:26:42;;;;;;;0.00;0.00;;;;;;;24.92;42.03;101664.78;2610679;31;20030;-54
2021/10/15 10:29:10;;;;;;;0.10;0.10;;;;;;;24.99;36.83;101654.50;2608825;31;20532;-57
2021/10/15 10:31:37;;;;;;;0.00;0.00;;;;;;;25.14;38.99;101658.84;2611518;31;20427;-56
2021/10/15 10:34:10;;;;;;;0.00;0.00;;;;;;;25.56;41.05;101676.41;2610435;31;20617;-55
2021/10/15 10:36:38;;;;;;;0.00;0.00;;;;;;;25.66;38.08;101670.41;2611016;31;20062;-56
2021/10/15 10:39:18;;;;;;;0.10;0.10;;;;;;;26.05;41.28;101672.06;2610093;31;20050;-57
2021/10/15 10:42:09;;;;;;;0.08;0.08;;;;;;;26.31;39.20;101678.22;2610776;31;20418;-56
2021/10/15 10:45:00;;;;;;;0.00;0.00;;;;;;;26.48;38.30;101675.16;2574625;31;2004388;-53
2021/10/15 10:47:28;;;;;;;0.00;0.00;;;;;;;26.62;35.42;101669.63;2574111;31;2004441;-56
2021/10/15 10:50:05;;;;;;;0.00;0.00;;;;;;;26.96;37.41;101669.75;2609838;31;20030;-56
2021/10/15 10:52:34;;;;;;;0.10;0.10;;;;;;;27.05;33.43;101668.19;2609378;36;20190;-57
2021/10/15 10:55:04;;;;;;;0.00;0.00;;;;;;;27.24;33.45;101673.03;2609685;31;20034;-57
2021/10/15 10:57:38;;;;;;;0.00;0.00;;;;;;;27.41;34.75;101680.59;2608946;36;20034;-56
2021/10/15 11:00:23;;;;;;;0.00;0.00;;;;;;;27.74;35.47;101677.13;2610850;31;20132;-58
2021/10/15 11:02:55;;;;;;;0.00;0.00;;;;;;;27.88;33.81;101671.50;2611182;31;20066;-57
2021/10/15 11:05:33;;;;;;;0.00;0.00;;;;;;;28.06;33.35;101677.22;2609454;31;20034;-55
2021/10/15 11:08:23;;;;;;;0.10;0.10;;;;;;;28.30;36.15;101673.50;2610462;31;20456;-57
2021/10/15 11:11:22;;;;;;;0.10;0.10;;;;;;;28.44;35.62;101674.13;2609275;31;20433;-57
2021/10/15 11:13:49;;;;;;;0.00;0.00;;;;;;;28.38;32.92;101676.44;2573919;31;2004132;-56
2021/10/15 11:16:21;;;;;;;0.00;0.00;;;;;;;28.58;33.79;101667.56;2610390;36;20499;-54
2021/10/15 11:18:48;;;;;;;0.00;0.00;;;;;;;28.60;30.90;101673.69;2610857;31;20046;-56
2021/10/15 11:21:16;;;;;;;0.00;0.00;;;;;;;28.72;32.04;101670.94;2609326;31;20038;-56
2021/10/15 11:23:43;;;;;;;0.10;0.10;;;;;;;28.87;31.01;101672.34;2610195;31;20922;-55
2021/10/15 11:26:10;;;;;;;0.00;0.00;;;;;;;29.05;30.53;101670.81;2608416;31;20038;-56
2021/10/15 11:28:37;;;;;;;0.00;0.00;;;;;;;29.24;30.77;101677.28;2610900;31;20038;-55
2021/10/15 11:31:08;;;;;;;0.10;0.10;;;;;;;29.53;31.76;101675.59;2610121;31;20727;-56
2021/10/15 11:33:38;;;;;;;0.10;0.10;;;;;;;29.62;27.83;101669.44;2609707;31;20897;-55
2021/10/15 11:36:06;;;;;;;0.03;0.03;;;;;;;29.81;28.96;101673.22;2611340;31;20450;-57
2021/10/15 11:38:34;;;;;;;0.05;0.05;;;;;;;29.94;30.63;101668.44;2610614;31;20030;-56
2021/10/15 11:41:05;;;;;;;0.00;0.00;;;;;;;30.17;29.26;101669.94;2609638;31;20591;-57
2021/10/15 11:43:38;;;;;;;0.10;0.10;;;;;;;30.31;28.12;101670.53;2609451;31;20569;-55
2021/10/15 11:46:21;;;;;;;0.00;0.00;;;;;;;30.53;29.86;101664.88;2608786;36;20031;-56
2021/10/15 11:48:51;;;;;;;0.00;0.00;;;;;;;30.56;27.30;101669.97;2610201;31;21261;-57